createdAt,value
2023-03-22T00:01:18.843Z,99112.44
2023-03-22T00:03:46.329Z,99125.81
2023-03-22T00:06:13.027Z,99150.13
2023-03-22T00:08:40.581Z,99193.56
2023-03-22T00:11:07.432Z,99214.56
2023-03-22T00:13:35.822Z,99239.34
2023-03-22T00:16:02.596Z,99244.69
2023-03-22T00:18:30.197Z,99233.84
2023-03-22T00:20:58.450Z,99220.41
2023-03-22T00:23:26.260Z,99222.75
2023-03-22T00:25:52.835Z,99226.09
2023-03-22T00:28:19.925Z,99223.97
2023-03-22T00:31:00.925Z,99250.94
2023-03-22T00:33:29.210Z,99259.81
2023-03-22T00:36:00.294Z,99280.59
2023-03-22T00:38:41.185Z,99279.47
2023-03-22T00:41:14.456Z,99280.97
2023-03-22T00:43:41.342Z,99282.81
2023-03-22T00:46:09.129Z,99288.31
2023-03-22T00:48:35.719Z,99306.78
2023-03-22T00:51:02.568Z,99317.09
2023-03-22T00:53:29.011Z,99320.09
2023-03-22T00:55:56.850Z,99321.56
2023-03-22T00:58:23.372Z,99318.59
2023-03-22T01:00:50.424Z,99329.06
2023-03-22T01:03:17.514Z,99321.75
2023-03-22T01:05:46.977Z,99310.13
2023-03-22T01:08:13.692Z,99326.41
2023-03-22T01:10:41.339Z,99333.88
2023-03-22T01:13:08.468Z,99327.91
2023-03-22T01:15:35.560Z,99326.06
2023-03-22T01:18:02.132Z,99321.44
2023-03-22T01:20:29.390Z,99320.75
2023-03-22T01:22:55.993Z,99317.25
2023-03-22T01:25:22.731Z,99325.06
2023-03-22T01:27:49.436Z,99324.56
2023-03-22T01:30:16.179Z,99328.72
2023-03-22T01:32:42.636Z,99336.66
2023-03-22T01:35:09.726Z,99340.63
2023-03-22T01:37:36.795Z,99340.13
2023-03-22T01:40:03.714Z,99341.63
2023-03-22T01:42:30.207Z,99345.91
2023-03-22T01:45:14.834Z,99356.88
2023-03-22T01:47:47.686Z,99358.84
2023-03-22T01:50:15.568Z,99374.09
2023-03-22T01:52:42.647Z,99377.22
2023-03-22T01:55:09.766Z,99381.38
2023-03-22T01:57:37.352Z,99382.97
2023-03-22T02:00:10.878Z,99387.25
2023-03-22T02:02:37.427Z,99405.47
2023-03-22T02:05:04.121Z,99412.78
2023-03-22T02:07:31.061Z,99416.56
2023-03-22T02:09:59.255Z,99415.03
2023-03-22T02:12:40.233Z,99419.97
2023-03-22T02:15:17.060Z,99426.03
2023-03-22T02:18:02.138Z,99448.56
2023-03-22T02:20:53.465Z,99451.69
2023-03-22T02:23:23.034Z,99457.44
2023-03-22T02:26:17.319Z,99464.31
2023-03-22T02:29:12.968Z,99477.06
2023-03-22T02:32:18.517Z,99494.25
2023-03-22T02:35:27.749Z,99490.09
2023-03-22T02:38:16.574Z,99497.75
2023-03-22T02:41:30.033Z,99487.97
2023-03-22T02:44:38.286Z,99479.34
2023-03-22T02:47:07.465Z,99476.38
2023-03-22T02:49:52.248Z,99466.38
2023-03-22T02:52:46.761Z,99464.63
2023-03-22T02:55:34.593Z,99462.75
2023-03-22T02:58:11.929Z,99484.41
2023-03-22T03:00:40.394Z,99488.88
2023-03-22T03:03:12.166Z,99495.00
2023-03-22T03:05:52.972Z,99497.94
2023-03-22T03:08:21.261Z,99492.81
2023-03-22T03:10:49.326Z,99490.47
2023-03-22T03:13:17.969Z,99486.19
2023-03-22T03:15:48.780Z,99494.38
2023-03-22T03:18:34.348Z,99509.28
2023-03-22T03:21:31.471Z,99518.34
2023-03-22T03:24:23.048Z,99514.47
2023-03-22T03:26:59.741Z,99515.75
2023-03-22T03:29:29.440Z,99524.16
2023-03-22T03:32:05.492Z,99538.53
2023-03-22T03:34:55.751Z,99555.53
2023-03-22T03:37:34.057Z,99563.03
2023-03-22T03:40:09.509Z,99568.34
2023-03-22T03:42:39.850Z,99561.94
2023-03-22T03:45:08.414Z,99560.16
2023-03-22T03:47:36.320Z,99569.09
2023-03-22T03:50:07.305Z,99587.06
2023-03-22T03:52:34.135Z,99575.41
2023-03-22T03:55:00.502Z,99570.66
2023-03-22T03:57:27.249Z,99567.91
2023-03-22T03:59:53.645Z,99573.47
2023-03-22T04:02:20.373Z,99584.19
2023-03-22T04:04:46.817Z,99585.72
2023-03-22T04:07:13.296Z,99591.03
2023-03-22T04:09:39.988Z,99583.06
2023-03-22T04:12:06.742Z,99587.53
2023-03-22T04:14:33.427Z,99572.66
2023-03-22T04:16:59.966Z,99572.38
2023-03-22T04:19:26.472Z,99564.03
2023-03-22T04:21:53.377Z,99568.78
2023-03-22T04:24:21.994Z,99574.47
2023-03-22T04:26:48.794Z,99582.69
2023-03-22T04:29:15.636Z,99591.34
2023-03-22T04:31:42.078Z,99602.22
2023-03-22T04:34:08.517Z,98939.13
2023-03-22T04:36:37.718Z,98908.38
2023-03-22T04:39:04.867Z,98901.72
2023-03-22T04:41:32.075Z,98893.25
2023-03-22T04:43:58.736Z,98889.16
2023-03-22T04:46:25.289Z,98884.00
2023-03-22T04:48:51.853Z,98887.63
2023-03-22T04:51:18.505Z,98889.16
2023-03-22T04:53:44.832Z,98883.69
2023-03-22T04:56:13.031Z,98883.00
2023-03-22T04:58:42.742Z,98890.41
2023-03-22T05:01:10.888Z,98884.63
2023-03-22T05:03:38.109Z,98879.81
2023-03-22T05:06:06.986Z,98885.31
2023-03-22T05:08:34.561Z,98885.09
2023-03-22T05:11:07.396Z,98893.34
2023-03-22T05:13:33.938Z,98884.22
2023-03-22T05:16:00.368Z,98875.22
2023-03-22T05:18:27.097Z,98874.41
2023-03-22T05:20:56.314Z,98872.22
2023-03-22T05:23:23.789Z,98870.59
2023-03-22T05:25:52.358Z,98858.19
2023-03-22T05:28:20.584Z,98860.34
2023-03-22T05:30:49.141Z,98855.88
2023-03-22T05:33:15.814Z,98854.25
2023-03-22T05:35:42.991Z,98853.41
2023-03-22T05:38:09.952Z,98856.19
2023-03-22T05:40:36.457Z,98859.22
2023-03-22T05:43:02.851Z,98849.00
2023-03-22T05:45:29.263Z,98860.25
2023-03-22T05:47:55.821Z,98867.53
2023-03-22T05:50:23.406Z,98868.19
2023-03-22T05:52:50.944Z,98866.91
2023-03-22T05:55:17.909Z,98863.72
2023-03-22T05:57:45.476Z,98864.69
2023-03-22T06:00:14.711Z,98868.34
2023-03-22T06:02:42.186Z,98860.25
2023-03-22T06:05:10.183Z,98865.91
2023-03-22T06:07:37.349Z,98861.28
2023-03-22T06:10:05.695Z,98863.78
2023-03-22T06:12:32.473Z,98862.00
2023-03-22T06:14:59.546Z,98861.38
2023-03-22T06:17:26.587Z,98867.22
2023-03-22T06:19:53.362Z,98869.38
2023-03-22T06:22:20.366Z,98879.66
2023-03-22T06:24:46.979Z,98889.97
2023-03-22T06:27:14.305Z,98898.81
2023-03-22T06:29:40.850Z,98905.97
2023-03-22T06:32:07.462Z,98916.44
2023-03-22T06:34:34.441Z,98927.56
2023-03-22T06:37:00.938Z,98950.72
2023-03-22T06:39:27.341Z,98956.56
2023-03-22T06:41:54.098Z,98968.66
2023-03-22T06:44:20.459Z,98977.00
2023-03-22T06:46:47.712Z,98987.16
2023-03-22T06:49:14.481Z,98998.25
2023-03-22T06:51:40.897Z,99001.78
2023-03-22T06:54:07.406Z,99015.84
2023-03-22T06:56:33.954Z,99010.03
2023-03-22T06:59:00.602Z,99013.38
2023-03-22T07:01:27.267Z,99010.25
2023-03-22T07:03:53.843Z,99017.91
2023-03-22T07:06:20.375Z,99012.25
2023-03-22T07:08:46.998Z,99016.56
2023-03-22T07:11:13.688Z,99015.88
2023-03-22T07:13:40.255Z,99012.97
2023-03-22T07:16:07.612Z,99004.78
2023-03-22T07:18:34.278Z,98991.91
2023-03-22T07:21:00.831Z,98989.91
2023-03-22T07:23:27.401Z,98994.63
2023-03-22T07:25:54.125Z,98972.44
2023-03-22T07:28:20.649Z,98972.75
2023-03-22T07:30:47.151Z,98969.88
2023-03-22T07:33:14.245Z,98962.16
2023-03-22T07:35:40.859Z,98949.91
2023-03-22T07:38:08.880Z,98937.72
2023-03-22T07:40:36.462Z,98910.06
2023-03-22T07:43:02.878Z,98894.50
2023-03-22T07:45:29.356Z,98886.78
2023-03-22T07:47:55.807Z,98893.03
2023-03-22T07:50:22.346Z,98881.72
2023-03-22T07:52:48.760Z,98867.16
2023-03-22T07:55:15.721Z,98847.72
2023-03-22T07:57:42.057Z,98823.94
2023-03-22T08:00:09.481Z,98810.66
2023-03-22T08:02:36.384Z,98791.56
2023-03-22T08:05:03.131Z,98773.94
2023-03-22T08:07:29.467Z,98747.00
2023-03-22T08:09:58.205Z,98735.97
2023-03-22T08:12:24.758Z,98734.53
2023-03-22T08:14:51.391Z,98714.81
2023-03-22T08:17:18.977Z,98719.38
2023-03-22T08:19:45.872Z,98710.31
2023-03-22T08:22:12.798Z,98699.22
2023-03-22T08:24:39.336Z,98675.31
2023-03-22T08:27:05.863Z,98667.69
2023-03-22T08:29:32.170Z,98659.41
2023-03-22T08:31:58.745Z,98646.56
2023-03-22T08:34:25.252Z,98628.19
2023-03-22T08:36:51.646Z,98615.69
2023-03-22T08:39:18.147Z,98605.16
2023-03-22T08:41:44.506Z,98586.69
2023-03-22T08:44:11.113Z,98574.91
2023-03-22T08:46:38.041Z,98557.84
2023-03-22T08:49:04.665Z,98546.31
2023-03-22T08:51:31.093Z,98537.31
2023-03-22T08:53:57.498Z,98526.31
2023-03-22T08:56:24.177Z,98522.03
2023-03-22T08:58:50.636Z,98511.50
2023-03-22T09:01:17.657Z,98502.59
2023-03-22T09:03:44.609Z,98496.78
2023-03-22T09:06:11.489Z,98490.91
2023-03-22T09:08:38.099Z,98487.31
2023-03-22T09:11:04.915Z,98482.63
2023-03-22T09:13:31.494Z,98483.56
2023-03-22T09:15:58.017Z,98477.63
2023-03-22T09:18:25.667Z,98484.84
2023-03-22T09:20:52.452Z,98470.22
2023-03-22T09:23:20.336Z,98475.25
2023-03-22T09:25:48.710Z,98467.44
2023-03-22T09:28:16.134Z,98472.31
2023-03-22T09:30:43.046Z,98462.66
2023-03-22T09:33:09.532Z,98460.25
2023-03-22T09:35:36.227Z,98466.06
2023-03-22T09:38:02.922Z,98461.31
2023-03-22T09:40:33.010Z,98453.50
2023-03-22T09:43:04.804Z,98451.19
2023-03-22T09:45:46.469Z,98447.69
2023-03-22T09:48:33.598Z,98436.38
2023-03-22T09:51:01.392Z,98441.25
2023-03-22T09:53:29.984Z,98450.75
2023-03-22T09:56:18.841Z,98439.84
2023-03-22T09:59:04.091Z,98444.50
2023-03-22T10:01:36.329Z,98433.56
2023-03-22T10:04:30.772Z,98423.34
2023-03-22T10:07:12.655Z,98423.34
2023-03-22T10:09:55.747Z,98424.38
2023-03-22T10:12:29.865Z,98422.09
2023-03-22T10:15:10.577Z,98425.88
2023-03-22T10:17:39.960Z,98427.72
2023-03-22T10:20:21.695Z,98413.97
2023-03-22T10:22:53.222Z,98415.91
2023-03-22T10:25:23.999Z,98413.31
2023-03-22T10:27:51.735Z,98405.53
2023-03-22T10:30:24.509Z,98402.81
2023-03-22T10:33:04.901Z,98386.66
2023-03-22T10:35:32.152Z,98391.44
2023-03-22T10:38:02.922Z,98391.81
2023-03-22T10:40:35.856Z,98389.63
2023-03-22T10:43:21.377Z,98393.03
2023-03-22T10:45:49.019Z,98385.81
2023-03-22T10:48:32.295Z,98374.47
2023-03-22T10:51:01.018Z,98379.66
2023-03-22T10:53:48.444Z,98380.75
2023-03-22T10:56:19.320Z,98381.25
2023-03-22T10:58:47.373Z,98381.69
2023-03-22T11:01:24.294Z,98384.25
2023-03-22T11:03:55.196Z,98375.50
2023-03-22T11:06:31.280Z,98367.91
2023-03-22T11:09:10.444Z,98375.25
2023-03-22T11:11:46.599Z,98363.91
2023-03-22T11:14:22.955Z,98371.53
2023-03-22T11:16:55.011Z,98369.00
2023-03-22T11:19:49.564Z,98371.75
2023-03-22T11:22:35.760Z,98367.97
2023-03-22T11:25:07.130Z,98376.31
2023-03-22T11:27:34.851Z,98368.53
2023-03-22T11:30:22.672Z,98357.97
2023-03-22T11:32:51.177Z,98362.84
2023-03-22T11:35:22.078Z,98350.72
2023-03-22T11:37:54.216Z,98342.94
2023-03-22T11:40:27.251Z,98350.22
2023-03-22T11:43:11.072Z,98337.84
2023-03-22T11:45:43.764Z,98338.66
2023-03-22T11:48:18.941Z,98331.13
2023-03-22T11:50:46.382Z,98337.91
2023-03-22T11:53:19.752Z,98338.97
2023-03-22T11:55:48.636Z,98331.69
2023-03-22T11:58:52.589Z,98329.84
2023-03-22T12:01:34.982Z,98324.03
2023-03-22T12:04:05.662Z,98334.88
2023-03-22T12:06:36.295Z,98332.13
2023-03-22T12:09:29.004Z,98316.53
2023-03-22T12:11:57.400Z,98305.47
2023-03-22T12:14:29.527Z,98306.53
2023-03-22T12:17:15.820Z,98298.38
2023-03-22T12:19:52.309Z,98298.53
2023-03-22T12:22:27.052Z,98286.13
2023-03-22T12:24:53.705Z,98293.13
2023-03-22T12:27:28.672Z,98289.13
2023-03-22T12:30:01.281Z,98276.69
2023-03-22T12:32:39.413Z,98281.28
2023-03-22T12:35:17.285Z,98281.28
2023-03-22T12:37:48.618Z,98284.56
2023-03-22T12:40:26.091Z,98284.81
2023-03-22T12:43:26.165Z,98284.03
2023-03-22T12:45:59.003Z,98283.16
2023-03-22T12:48:31.777Z,98281.22
2023-03-22T12:51:02.868Z,98280.69
2023-03-22T12:53:35.513Z,98268.81
2023-03-22T12:56:03.112Z,98279.09
2023-03-22T12:58:29.506Z,98269.84
2023-03-22T13:01:01.281Z,98277.41
2023-03-22T13:03:49.104Z,98269.78
2023-03-22T13:06:34.428Z,98277.31
2023-03-22T13:09:03.373Z,98260.38
2023-03-22T13:11:30.365Z,98257.41
2023-03-22T13:13:56.917Z,98261.72
2023-03-22T13:16:42.296Z,98249.56
2023-03-22T13:19:26.177Z,98239.81
2023-03-22T13:22:16.786Z,98247.69
2023-03-22T13:25:01.614Z,98246.06
2023-03-22T13:27:57.001Z,98239.84
2023-03-22T13:30:47.225Z,98230.88
2023-03-22T13:33:28.397Z,98230.34
2023-03-22T13:36:07.447Z,98221.16
2023-03-22T13:38:37.952Z,98221.94
2023-03-22T13:41:13.874Z,98217.59
2023-03-22T13:43:42.978Z,98209.19
2023-03-22T13:46:09.529Z,98207.84
2023-03-22T13:48:52.080Z,98199.63
2023-03-22T13:51:21.325Z,98208.56
2023-03-22T13:54:04.471Z,98212.16
2023-03-22T13:56:33.990Z,98199.47
2023-03-22T13:59:02.149Z,98201.06
2023-03-22T14:01:34.583Z,98191.59
2023-03-22T14:04:06.746Z,98192.13
2023-03-22T14:06:42.997Z,98189.69
2023-03-22T14:09:27.445Z,98186.97
2023-03-22T14:12:00.627Z,98184.28
2023-03-22T14:14:36.856Z,98173.13
2023-03-22T14:17:15.124Z,98181.28
2023-03-22T14:19:42.404Z,98177.13
